Time;durP1;ratioP1;P1;durP2;ratioP2;P2;SDS_P1;SDS_P2;PMS_P1;PMS_P2;Temp;Humidity;BMP_temperature;BMP_pressure;BME280_temperature;BME280_humidity;BME280_pressure;Samples;Min_cycle;Max_cycle;Signal;HPM_P1;HPM_P2
2023/05/12 00:00:11;;;;;;;15.32;6.70;;;;;;;10.38;46.48;101110.55;1721661;83;21020;-56
2023/05/12 00:02:43;;;;;;;21.90;7.03;;;;;;;10.35;46.34;101113.65;1721906;83;21631;-58
2023/05/12 00:05:12;;;;;;;13.95;6.35;;;;;;;10.37;46.38;101118.95;1721692;81;21384;-57
2023/05/12 00:07:44;;;;;;;16.32;6.47;;;;;;;10.38;46.30;101122.02;1721857;83;21074;-57
2023/05/12 00:10:13;;;;;;;14.90;6.20;;;;;;;10.36;46.11;101111.25;1721738;83;21031;-57
2023/05/12 00:12:43;;;;;;;14.05;6.22;;;;;;;10.35;46.25;101117.76;1721806;81;21031;-57
2023/05/12 00:15:13;;;;;;;15.85;8.23;;;;;;;10.30;46.61;101116.59;1712385;82;21077;-57
2023/05/12 00:17:43;;;;;;;21.17;7.70;;;;;;;10.27;46.87;101112.83;1693616;83;21023;-58
2023/05/12 00:20:13;;;;;;;18.40;7.25;;;;;;;10.27;46.95;101122.42;1693430;83;21423;-57
2023/05/12 00:22:42;;;;;;;19.55;7.05;;;;;;;10.24;46.95;101115.93;1693716;83;21083;-57
2023/05/12 00:25:11;;;;;;;15.10;7.33;;;;;;;10.22;46.94;101117.48;1693531;85;21030;-57
2023/05/12 00:27:40;;;;;;;17.05;6.87;;;;;;;10.20;47.14;101123.65;1693415;83;21450;-58
2023/05/12 00:30:12;;;;;;;16.93;6.58;;;;;;;10.14;47.33;101120.22;1693396;83;21067;-57
2023/05/12 00:32:41;;;;;;;18.20;6.20;;;;;;;10.10;47.42;101127.08;1693391;83;21026;-56
2023/05/12 00:35:11;;;;;;;14.28;6.70;;;;;;;10.04;47.41;101120.42;1693410;85;21034;-57
2023/05/12 00:37:40;;;;;;;13.88;6.20;;;;;;;10.02;47.42;101124.38;1693757;85;21509;-56
2023/05/12 00:40:10;;;;;;;14.60;6.17;;;;;;;9.94;47.29;101126.62;1693691;84;21070;-58
2023/05/12 00:42:40;;;;;;;12.68;5.85;;;;;;;9.88;47.37;101136.05;1693455;83;21018;-58
2023/05/12 00:45:10;;;;;;;14.83;6.08;;;;;;;9.79;47.63;101127.01;1693450;83;20987;-57
2023/05/12 00:47:39;;;;;;;15.72;5.83;;;;;;;9.75;47.72;101129.72;1693675;85;21047;-56
2023/05/12 00:50:09;;;;;;;15.20;5.70;;;;;;;9.70;47.90;101128.87;1693620;84;21126;-57
2023/05/12 00:52:39;;;;;;;18.60;7.05;;;;;;;9.69;48.17;101134.02;1693744;84;21050;-57
2023/05/12 00:55:10;;;;;;;13.98;6.75;;;;;;;9.68;48.36;101132.30;1693369;85;21058;-57
2023/05/12 00:57:41;;;;;;;21.77;7.30;;;;;;;9.66;48.51;101138.46;1693432;83;21015;-57
2023/05/12 01:00:13;;;;;;;19.07;7.75;;;;;;;9.59;48.87;101131.13;1693505;83;21003;-57
2023/05/12 01:02:44;;;;;;;16.85;7.78;;;;;;;9.49;49.25;101133.53;1693684;84;21470;-57
2023/05/12 01:05:14;;;;;;;14.93;6.37;;;;;;;9.45;49.64;101129.95;1693614;83;21047;-57
2023/05/12 01:07:46;;;;;;;13.83;6.25;;;;;;;9.45;49.76;101134.05;1672204;83;21498;-58
2023/05/12 01:10:20;;;;;;;12.25;5.75;;;;;;;9.43;49.52;101130.12;1693492;85;21038;-57
2023/05/12 01:12:49;;;;;;;11.75;5.87;;;;;;;9.41;49.20;101130.80;1671851;85;21055;-58
2023/05/12 01:15:19;;;;;;;12.10;5.03;;;;;;;9.40;49.08;101136.45;1697766;83;21046;-57
2023/05/12 01:17:56;;;;;;;17.32;5.62;;;;;;;9.36;49.01;101130.47;1713826;82;21063;-57
2023/05/12 01:20:26;;;;;;;11.03;4.90;;;;;;;9.34;49.06;101135.77;1714035;84;21024;-57
2023/05/12 01:22:56;;;;;;;11.85;5.20;;;;;;;9.28;49.13;101133.20;1713971;84;21059;-58
2023/05/12 01:25:30;;;;;;;9.50;4.95;;;;;;;9.24;49.33;101137.31;1713833;82;21008;-57
2023/05/12 01:28:00;;;;;;;10.23;5.90;;;;;;;9.20;49.49;101134.58;1713859;84;21047;-57
2023/05/12 01:30:30;;;;;;;12.45;5.42;;;;;;;9.17;49.62;101141.75;1713764;84;21067;-58
2023/05/12 01:33:00;;;;;;;14.83;5.60;;;;;;;9.14;49.83;101143.46;1713803;82;21491;-58
2023/05/12 01:35:30;;;;;;;12.20;5.85;;;;;;;9.12;49.93;101138.16;1713854;82;21493;-57
2023/05/12 01:38:03;;;;;;;12.88;5.17;;;;;;;9.08;49.79;101142.23;1713749;82;21039;-57
2023/05/12 01:40:35;;;;;;;12.33;5.22;;;;;;;9.06;49.95;101136.08;1713993;84;21427;-57
2023/05/12 01:43:04;;;;;;;16.27;5.70;;;;;;;9.04;50.18;101134.54;1713762;84;21028;-58
2023/05/12 01:45:35;;;;;;;14.87;5.90;;;;;;;8.98;50.54;101134.70;1714119;82;21412;-57
2023/05/12 01:48:05;;;;;;;10.93;5.55;;;;;;;8.98;50.61;101139.31;1714079;84;21080;-57
2023/05/12 01:50:35;;;;;;;12.98;5.35;;;;;;;8.95;50.50;101131.45;1713791;84;21087;-58
2023/05/12 01:53:11;;;;;;;12.30;5.30;;;;;;;8.93;50.44;101135.72;1713819;84;21035;-57
2023/05/12 01:55:41;;;;;;;12.68;5.58;;;;;;;8.92;50.49;101135.89;1713715;84;21570;-58
2023/05/12 01:58:11;;;;;;;12.50;5.50;;;;;;;8.90;50.71;101141.53;1713753;84;21000;-57
2023/05/12 02:00:40;;;;;;;13.68;5.50;;;;;;;8.88;50.86;101135.37;1713991;84;21027;-58
2023/05/12 02:03:10;;;;;;;9.30;4.97;;;;;;;8.86;50.93;101135.55;1713969;83;21004;-57
2023/05/12 02:05:40;;;;;;;13.22;5.60;;;;;;;8.85;51.12;101140.67;1713982;82;21059;-59
2023/05/12 02:08:10;;;;;;;11.00;5.00;;;;;;;8.83;51.28;101141.86;1713753;82;21063;-57
2023/05/12 02:10:39;;;;;;;8.48;4.40;;;;;;;8.84;51.51;101146.30;1713892;84;21063;-57
2023/05/12 02:13:09;;;;;;;8.63;4.37;;;;;;;8.84;51.53;101144.42;1713758;82;21479;-58
2023/05/12 02:15:39;;;;;;;13.40;4.40;;;;;;;8.82;51.49;101141.52;1713699;84;21072;-57
2023/05/12 02:18:08;;;;;;;10.03;4.80;;;;;;;8.83;51.52;101144.59;1714016;82;21048;-57
2023/05/12 02:20:40;;;;;;;8.63;4.65;;;;;;;8.87;51.37;101137.77;1713993;82;21024;-57
2023/05/12 02:23:09;;;;;;;7.67;4.50;;;;;;;8.86;51.37;101140.16;1713767;82;21036;-58
2023/05/12 02:25:40;;;;;;;11.20;5.33;;;;;;;8.86;51.40;101137.42;1713824;82;21032;-57
2023/05/12 02:28:10;;;;;;;19.70;5.45;;;;;;;8.83;51.49;101145.96;1713771;84;21039;-57
2023/05/12 02:30:49;;;;;;;13.60;4.87;;;;;;;8.84;51.65;101142.20;1713815;82;21463;-57
2023/05/12 02:33:25;;;;;;;11.12;5.12;;;;;;;8.85;51.99;101146.13;1713802;84;21510;-57
2023/05/12 02:35:55;;;;;;;14.47;4.22;;;;;;;8.86;52.15;101142.89;1713962;84;21031;-57
2023/05/12 02:38:26;;;;;;;8.68;4.15;;;;;;;8.88;52.07;101140.84;1691663;84;21039;-58
2023/05/12 02:40:56;;;;;;;8.80;4.17;;;;;;;8.85;52.16;101146.64;1713944;82;21516;-58
2023/05/12 02:43:27;;;;;;;27.50;7.10;;;;;;;8.83;52.24;101144.59;1713808;84;21056;-58
2023/05/12 02:45:56;;;;;;;17.80;5.65;;;;;;;8.84;52.38;101142.20;1713784;84;20996;-58
2023/05/12 02:48:26;;;;;;;16.90;4.83;;;;;;;8.84;52.54;101142.20;1713837;84;21055;-58
2023/05/12 02:50:56;;;;;;;11.35;4.55;;;;;;;8.85;52.65;101145.28;1713767;82;21487;-58
2023/05/12 02:53:27;;;;;;;9.28;3.80;;;;;;;8.85;52.81;101150.75;1714145;82;21047;-57
2023/05/12 02:55:56;;;;;;;17.62;4.90;;;;;;;8.84;52.84;101149.03;1713748;82;21448;-56
2023/05/12 02:58:26;;;;;;;18.98;5.15;;;;;;;8.87;52.92;101155.02;1713868;84;21502;-58
2023/05/12 03:00:55;;;;;;;13.10;4.53;;;;;;;8.88;52.89;101150.41;1713759;84;21024;-58
2023/05/12 03:03:26;;;;;;;10.30;5.10;;;;;;;8.89;52.81;101156.22;1711600;83;21565;-57
2023/05/12 03:05:56;;;;;;;9.73;4.50;;;;;;;8.88;52.72;101152.63;1713900;84;21482;-58
2023/05/12 03:08:25;;;;;;;8.28;4.10;;;;;;;8.88;52.74;101158.09;1713729;82;21028;-57
2023/05/12 03:10:55;;;;;;;10.95;4.60;;;;;;;8.82;52.92;101159.28;1713718;82;21098;-57
2023/05/12 03:13:25;;;;;;;9.35;4.62;;;;;;;8.79;53.11;101160.47;1713799;84;21047;-57
2023/05/12 03:15:56;;;;;;;12.35;4.65;;;;;;;8.78;53.21;101157.91;1713599;82;21086;-57
2023/05/12 03:18:25;;;;;;;13.03;5.30;;;;;;;8.76;53.54;101155.34;1713790;84;21095;-57
2023/05/12 03:20:55;;;;;;;14.03;5.53;;;;;;;8.79;53.83;101158.25;1713714;82;21467;-57
2023/05/12 03:23:25;;;;;;;9.75;5.10;;;;;;;8.81;54.07;101168.50;1713692;84;21076;-59
2023/05/12 03:25:57;;;;;;;14.10;5.78;;;;;;;8.81;54.07;101167.98;1713941;84;21056;-59
2023/05/12 03:28:27;;;;;;;35.13;7.37;;;;;;;8.83;54.08;101171.92;1713765;84;21032;-59
2023/05/12 03:30:57;;;;;;;16.50;6.45;;;;;;;8.86;54.25;101162.02;1713974;84;21472;-56
2023/05/12 03:33:26;;;;;;;19.37;6.17;;;;;;;8.90;54.35;101163.39;1713672;82;21007;-58
2023/05/12 03:35:57;;;;;;;18.37;5.67;;;;;;;8.94;54.39;101170.23;1714128;84;21063;-57
2023/05/12 03:38:26;;;;;;;21.07;6.28;;;;;;;8.97;54.42;101167.67;1713893;84;21611;-58
2023/05/12 03:41:05;;;;;;;21.30;6.90;;;;;;;8.97;54.46;101167.16;1713620;84;21463;-57
2023/05/12 03:43:35;;;;;;;16.73;5.97;;;;;;;9.03;54.53;101172.47;1713757;82;21093;-59
2023/05/12 03:46:06;;;;;;;13.28;6.50;;;;;;;9.09;54.42;101171.28;1713853;84;21122;-58
2023/05/12 03:48:36;;;;;;;15.70;6.22;;;;;;;9.16;54.19;101173.70;1713823;84;21043;-59
2023/05/12 03:51:06;;;;;;;18.30;7.10;;;;;;;9.25;54.05;101173.71;1713796;82;21028;-57
2023/05/12 03:53:36;;;;;;;18.67;7.65;;;;;;;9.33;54.13;101176.45;1713898;84;21047;-57
2023/05/12 03:56:06;;;;;;;25.30;9.05;;;;;;;9.37;54.17;101177.81;1714044;84;21482;-58
2023/05/12 03:58:36;;;;;;;24.27;8.38;;;;;;;9.44;53.98;101178.33;1713791;82;21000;-58
2023/05/12 04:01:07;;;;;;;25.02;7.53;;;;;;;9.54;53.57;101180.89;1713735;82;21000;-59
2023/05/12 04:03:37;;;;;;;22.20;7.83;;;;;;;9.64;53.61;101180.70;1714026;84;21063;-57
2023/05/12 04:06:07;;;;;;;28.02;7.65;;;;;;;9.71;53.58;101178.48;1713847;84;21027;-58
2023/05/12 04:08:38;;;;;;;22.87;7.50;;;;;;;9.79;53.52;101181.75;1713987;84;21040;-59
2023/05/12 04:11:10;;;;;;;33.67;9.33;;;;;;;9.85;53.41;101180.54;1713751;82;21063;-57
2023/05/12 04:13:40;;;;;;;16.75;7.10;;;;;;;9.93;53.19;101177.44;1714106;84;21056;-57
2023/05/12 04:16:10;;;;;;;24.98;9.30;;;;;;;10.00;53.31;101177.94;1713961;82;21075;-57
2023/05/12 04:18:40;;;;;;;28.07;9.30;;;;;;;10.06;53.59;101185.45;1713855;82;21075;-58
2023/05/12 04:21:11;;;;;;;23.55;7.75;;;;;;;10.12;53.58;101186.63;1713912;82;21092;-58
2023/05/12 04:23:41;;;;;;;23.47;6.83;;;;;;;10.20;53.05;101182.53;1713832;84;21039;-58
2023/05/12 04:26:10;;;;;;;15.60;6.62;;;;;;;10.29;52.42;101189.69;1713951;82;21059;-59
2023/05/12 04:28:41;;;;;;;23.90;7.10;;;;;;;10.42;52.04;101185.05;1714186;82;21005;-58
2023/05/12 04:31:10;;;;;;;31.17;8.05;;;;;;;10.53;51.81;101178.33;1623206;87;21123;-59
2023/05/12 04:33:41;;;;;;;18.62;6.22;;;;;;;10.64;51.53;101187.52;1622449;86;21062;-58
2023/05/12 04:36:12;;;;;;;14.38;5.53;;;;;;;10.75;51.63;101185.75;1632517;86;21059;-59
2023/05/12 04:38:42;;;;;;;13.62;6.03;;;;;;;10.86;51.88;101185.34;1623292;87;21143;-57
2023/05/12 04:41:12;;;;;;;10.95;5.10;;;;;;;10.94;51.87;101189.40;1639516;86;21520;-57
2023/05/12 04:43:41;;;;;;;14.87;6.35;;;;;;;11.04;52.13;101191.39;1623294;86;21074;-57
2023/05/12 04:46:16;;;;;;;21.45;5.70;;;;;;;11.16;52.79;101189.12;1639506;86;21084;-60
2023/05/12 04:48:45;;;;;;;8.98;5.10;;;;;;;11.28;53.81;101189.02;1646566;84;21067;-58
2023/05/12 04:51:16;;;;;;;11.55;4.67;;;;;;;11.41;54.05;101187.03;1708596;83;21432;-58
2023/05/12 04:53:45;;;;;;;12.75;4.62;;;;;;;11.54;53.99;101183.67;1713810;82;21067;-58
2023/05/12 04:56:16;;;;;;;14.33;4.58;;;;;;;11.66;53.91;101190.42;1713914;82;21039;-58
2023/05/12 04:58:46;;;;;;;10.28;4.10;;;;;;;11.79;53.87;101187.11;1713825;82;21063;-59
2023/05/12 05:01:17;;;;;;;11.65;3.90;;;;;;;11.94;53.63;101190.73;1713928;82;21044;-57
2023/05/12 05:03:47;;;;;;;9.53;4.30;;;;;;;12.06;53.55;101187.85;1713971;84;21032;-58
2023/05/12 05:06:18;;;;;;;6.15;3.45;;;;;;;12.21;53.22;101188.71;1713758;82;21044;-57
2023/05/12 05:08:49;;;;;;;9.13;4.08;;;;;;;12.34;53.01;101187.52;1713828;82;21019;-57
2023/05/12 05:11:22;;;;;;;26.48;14.25;;;;;;;12.52;52.52;101183.56;1713758;82;21055;-59
2023/05/12 05:13:53;;;;;;;23.90;7.05;;;;;;;12.73;52.15;101180.88;1713774;82;21052;-58
2023/05/12 05:16:23;;;;;;;21.73;6.40;;;;;;;13.03;51.45;101180.30;1713494;82;21044;-58
2023/05/12 05:18:54;;;;;;;11.65;4.92;;;;;;;13.39;50.37;101183.03;1684808;84;21044;-59
2023/05/12 05:21:26;;;;;;;12.53;4.28;;;;;;;13.77;49.30;101186.37;1713985;82;21515;-57
2023/05/12 05:23:56;;;;;;;10.30;4.70;;;;;;;14.16;48.68;101189.94;1691928;84;21040;-59
2023/05/12 05:26:26;;;;;;;11.10;4.40;;;;;;;14.57;47.39;101190.55;1713724;84;21122;-56
2023/05/12 05:28:57;;;;;;;7.00;4.33;;;;;;;14.88;46.36;101189.52;1713739;82;21471;-59
2023/05/12 05:31:29;;;;;;;18.52;5.30;;;;;;;15.12;46.08;101190.05;1713695;82;21012;-58
2023/05/12 05:33:59;;;;;;;12.40;4.70;;;;;;;15.33;45.45;101184.89;1713781;82;21091;-58
2023/05/12 05:36:29;;;;;;;18.23;7.12;;;;;;;15.46;44.95;101185.77;1713963;84;21530;-57
2023/05/12 05:39:00;;;;;;;10.15;5.80;;;;;;;15.61;44.46;101189.77;1713712;82;21035;-57
2023/05/12 05:41:31;;;;;;;6.55;4.37;;;;;;;15.68;43.76;101189.77;1713818;82;21067;-58
2023/05/12 05:44:00;;;;;;;18.20;5.20;;;;;;;15.75;43.63;101187.86;1713913;84;21479;-58
2023/05/12 05:46:31;;;;;;;9.90;4.50;;;;;;;15.87;43.41;101186.16;1713813;82;21052;-58
2023/05/12 05:49:01;;;;;;;17.80;5.55;;;;;;;16.02;42.59;101182.64;1713859;82;21439;-59
2023/05/12 05:51:32;;;;;;;9.65;4.55;;;;;;;16.17;42.40;101186.02;1713965;84;21072;-57
2023/05/12 05:54:01;;;;;;;14.07;5.25;;;;;;;16.37;42.12;101189.30;1713703;84;20999;-58
2023/05/12 05:56:34;;;;;;;16.17;5.10;;;;;;;16.49;41.82;101189.80;1713953;82;21056;-58
2023/05/12 05:59:05;;;;;;;12.00;4.40;;;;;;;16.54;41.17;101183.61;1713891;84;21109;-58
2023/05/12 06:01:37;;;;;;;11.30;4.95;;;;;;;16.56;41.15;101189.78;1714042;84;21506;-58
2023/05/12 06:04:07;;;;;;;11.38;5.35;;;;;;;16.60;41.18;101189.66;1714030;82;21035;-58
2023/05/12 06:06:38;;;;;;;13.70;4.75;;;;;;;16.70;40.67;101183.70;1713743;82;21463;-58
2023/05/12 06:09:11;;;;;;;17.55;5.28;;;;;;;16.77;40.63;101190.91;1713803;84;21039;-58
2023/05/12 06:11:39;;;;;;;18.05;4.97;;;;;;;16.98;39.95;101187.54;1713756;82;21447;-57
2023/05/12 06:14:08;;;;;;;11.10;4.60;;;;;;;17.23;39.33;101185.69;1713855;82;21035;-57
2023/05/12 06:16:38;;;;;;;7.80;3.85;;;;;;;17.53;39.41;101185.91;1713637;82;21019;-57
2023/05/12 06:19:09;;;;;;;12.55;3.62;;;;;;;17.85;38.63;101186.78;1713694;84;21091;-56
2023/05/12 06:21:39;;;;;;;10.08;3.58;;;;;;;18.26;37.72;101190.91;1713716;82;21096;-59
2023/05/12 06:24:08;;;;;;;6.62;3.72;;;;;;;18.63;36.85;101195.98;1713705;84;21102;-57
2023/05/12 06:26:38;;;;;;;10.28;4.20;;;;;;;18.97;36.77;101191.73;1691793;83;21040;-57
2023/05/12 06:29:07;;;;;;;5.70;3.40;;;;;;;19.36;35.55;101190.88;1713725;82;21058;-58
2023/05/12 06:31:37;;;;;;;10.70;3.80;;;;;;;19.57;33.74;101189.00;1713738;84;21039;-58
2023/05/12 06:34:06;;;;;;;13.18;4.17;;;;;;;19.56;34.29;101190.94;1713632;82;21012;-57
2023/05/12 06:36:36;;;;;;;6.70;3.00;;;;;;;19.70;34.59;101186.55;1713835;82;21023;-58
2023/05/12 06:39:06;;;;;;;11.60;3.87;;;;;;;19.88;34.56;101190.63;1713792;82;21148;-59
2023/05/12 06:41:38;;;;;;;5.62;3.20;;;;;;;20.23;34.35;101191.53;1713802;82;21483;-58
2023/05/12 06:44:11;;;;;;;20.52;4.10;;;;;;;20.64;33.77;101195.27;1713784;82;21451;-58
2023/05/12 06:46:39;;;;;;;8.13;3.45;;;;;;;20.87;32.93;101192.46;1713737;84;21493;-58
2023/05/12 06:49:09;;;;;;;4.70;2.83;;;;;;;20.90;33.13;101192.52;1713685;84;21036;-60
2023/05/12 06:51:38;;;;;;;5.08;3.22;;;;;;;21.01;32.66;101188.00;1713884;82;21031;-58
2023/05/12 06:54:11;;;;;;;10.60;4.15;;;;;;;21.30;32.34;101197.24;1713799;82;21059;-60
2023/05/12 06:56:41;;;;;;;7.08;4.03;;;;;;;21.43;31.97;101192.75;1713947;82;21478;-58
2023/05/12 06:59:11;;;;;;;15.68;4.70;;;;;;;21.47;32.10;101192.58;1713847;82;21035;-59
2023/05/12 07:01:42;;;;;;;5.08;3.00;;;;;;;21.53;32.13;101195.77;1713890;82;21064;-58
2023/05/12 07:04:11;;;;;;;4.60;2.65;;;;;;;21.63;31.63;101189.52;1713868;83;21028;-57
2023/05/12 07:06:42;;;;;;;5.20;2.95;;;;;;;21.71;31.20;101187.16;1713853;84;21471;-58
2023/05/12 07:09:13;;;;;;;5.17;2.80;;;;;;;21.88;30.77;101186.33;1713625;82;21059;-59
2023/05/12 07:11:43;;;;;;;16.55;4.62;;;;;;;22.03;30.51;101193.58;1713727;84;21107;-57
2023/05/12 07:14:12;;;;;;;12.23;3.47;;;;;;;22.20;30.67;101190.27;1713761;84;21028;-60
2023/05/12 07:16:42;;;;;;;4.90;2.72;;;;;;;22.52;30.15;101194.64;1713685;84;21479;-59
2023/05/12 07:19:12;;;;;;;7.58;2.30;;;;;;;22.72;28.82;101195.47;1692297;83;21047;-60
2023/05/12 07:21:42;;;;;;;6.97;2.85;;;;;;;22.85;28.62;101202.14;1713964;84;21079;-58
2023/05/12 07:24:13;;;;;;;5.75;2.90;;;;;;;23.05;27.78;101194.56;1639430;85;21018;-58
2023/05/12 07:26:43;;;;;;;2.95;2.10;;;;;;;22.95;28.45;101200.88;1713961;83;21060;-59
2023/05/12 07:29:13;;;;;;;6.60;2.47;;;;;;;22.92;27.73;101193.01;1714064;83;21095;-63
2023/05/12 07:31:44;;;;;;;3.20;1.98;;;;;;;22.85;28.10;101202.70;1713906;84;21072;-59
2023/05/12 07:34:14;;;;;;;5.75;2.40;;;;;;;22.93;27.82;101201.69;1713996;84;21036;-60
2023/05/12 07:36:42;;;;;;;5.55;2.47;;;;;;;23.18;27.70;101204.50;1713771;84;21427;-58
2023/05/12 07:39:13;;;;;;;6.60;2.70;;;;;;;23.45;26.92;101193.36;1713778;82;21020;-59
2023/05/12 07:41:43;;;;;;;4.30;2.50;;;;;;;23.62;27.05;101198.31;1713879;82;21071;-60
2023/05/12 07:44:13;;;;;;;12.28;3.90;;;;;;;23.85;27.03;101204.97;1713834;82;21043;-59
2023/05/12 07:46:42;;;;;;;8.60;3.02;;;;;;;23.85;27.08;101202.73;1713988;82;21064;-59
2023/05/12 07:49:13;;;;;;;5.83;2.62;;;;;;;23.81;27.16;101199.61;1713860;82;21079;-58
2023/05/12 07:51:42;;;;;;;7.72;2.52;;;;;;;23.84;27.23;101189.84;1713678;82;21107;-58
2023/05/12 07:54:12;;;;;;;5.12;2.80;;;;;;;23.90;27.32;101184.02;1713993;84;21103;-59
2023/05/12 07:56:44;;;;;;;10.28;3.40;;;;;;;23.97;27.51;101190.80;1714062;84;21435;-60
2023/05/12 07:59:14;;;;;;;6.22;3.50;;;;;;;23.78;27.63;101189.51;1713773;84;21055;-60
2023/05/12 08:01:43;;;;;;;7.97;3.35;;;;;;;23.74;27.86;101187.80;1713652;84;21060;-61
2023/05/12 08:04:12;;;;;;;10.48;4.10;;;;;;;23.85;27.83;101184.53;1713933;82;21058;-60
2023/05/12 08:06:43;;;;;;;3.95;2.80;;;;;;;23.88;27.71;101180.64;1714033;82;21031;-59
2023/05/12 08:09:12;;;;;;;10.25;3.52;;;;;;;23.96;27.66;101177.91;1713774;82;21479;-61
2023/05/12 08:11:43;;;;;;;5.05;3.00;;;;;;;24.12;27.16;101179.73;1727570;81;21047;-59
2023/05/12 08:14:16;;;;;;;7.37;3.10;;;;;;;24.22;26.78;101182.61;1698049;83;21062;-59
2023/05/12 08:17:09;;;;;;;6.53;3.30;;;;;;;24.13;27.14;101181.43;1716718;83;21017;-60
2023/05/12 08:19:41;;;;;;;7.58;3.60;;;;;;;24.04;26.84;101178.81;1661901;85;21495;-58
2023/05/12 08:22:11;;;;;;;7.28;3.62;;;;;;;23.81;27.46;101175.83;1685608;85;21086;-59
2023/05/12 08:24:40;;;;;;;10.93;3.55;;;;;;;23.87;27.46;101176.71;1685494;85;21036;-59
2023/05/12 08:27:10;;;;;;;6.25;3.50;;;;;;;23.91;27.13;101180.66;1685311;85;21097;-60
2023/05/12 08:29:38;;;;;;;10.58;3.85;;;;;;;23.85;27.06;101174.73;1664614;85;21099;-60
2023/05/12 08:32:12;;;;;;;8.13;3.27;;;;;;;23.63;27.27;101179.86;1657091;86;21087;-60
2023/05/12 08:34:43;;;;;;;8.85;3.37;;;;;;;23.35;27.36;101168.89;1643158;87;21052;-59
2023/05/12 08:37:13;;;;;;;7.25;3.02;;;;;;;23.12;27.47;101184.58;1626305;86;21123;-58
2023/05/12 08:39:42;;;;;;;10.45;3.10;;;;;;;22.87;27.80;101173.94;1641970;87;21552;-60
2023/05/12 08:42:19;;;;;;;6.25;3.02;;;;;;;22.77;28.20;101169.88;1642483;87;21036;-59
2023/05/12 08:44:49;;;;;;;7.58;2.98;;;;;;;22.93;28.10;101179.33;1651115;86;21103;-58
2023/05/12 08:47:19;;;;;;;5.42;2.83;;;;;;;23.19;27.74;101172.63;1675308;85;21490;-59
2023/05/12 08:49:53;;;;;;;5.50;3.17;;;;;;;23.36;27.46;101163.59;1675630;85;21047;-60
2023/05/12 08:52:22;;;;;;;3.17;2.50;;;;;;;23.32;27.43;101165.22;1675535;85;21537;-61
2023/05/12 08:54:52;;;;;;;6.00;2.58;;;;;;;23.30;27.59;101170.23;1675598;86;21460;-61
2023/05/12 08:57:23;;;;;;;6.70;2.90;;;;;;;23.36;27.04;101170.02;1675643;86;21517;-59
2023/05/12 08:59:55;;;;;;;7.05;2.55;;;;;;;23.36;26.68;101166.38;1675305;86;21060;-57
2023/05/12 09:02:24;;;;;;;20.00;4.65;;;;;;;23.24;26.61;101169.89;1675489;86;21039;-60
2023/05/12 09:04:53;;;;;;;10.25;3.00;;;;;;;23.12;26.59;101163.05;1653458;85;21501;-59
2023/05/12 09:07:26;;;;;;;17.05;6.17;;;;;;;23.06;26.79;101162.15;1652731;86;21054;-58
2023/05/12 09:09:57;;;;;;;8.65;3.00;;;;;;;23.10;26.81;101161.07;1673939;86;21510;-59
2023/05/12 09:12:31;;;;;;;8.08;2.80;;;;;;;23.03;26.98;101161.27;1673862;86;21187;-60
2023/05/12 09:15:09;;;;;;;7.03;3.30;;;;;;;23.00;27.21;101155.36;1673909;85;21079;-60
2023/05/12 09:17:38;;;;;;;6.62;3.02;;;;;;;22.95;27.32;101160.89;1678955;84;21075;-60
2023/05/12 09:20:09;;;;;;;6.42;2.55;;;;;;;22.94;26.95;101148.87;1704963;83;21447;-60
2023/05/12 09:22:40;;;;;;;6.08;2.85;;;;;;;22.95;26.70;101149.16;1728861;82;21032;-59
2023/05/12 09:25:20;;;;;;;7.25;2.75;;;;;;;22.90;26.63;101153.84;1731645;83;21044;-61
2023/05/12 09:27:53;;;;;;;4.95;2.45;;;;;;;22.85;26.53;101152.39;1731724;83;21472;-59
2023/05/12 09:30:30;;;;;;;7.42;2.50;;;;;;;22.75;26.54;101150.25;1731611;83;21029;-60
2023/05/12 09:33:08;;;;;;;4.72;2.47;;;;;;;22.66;26.56;101158.80;1731886;83;21094;-58
2023/05/12 09:35:42;;;;;;;4.47;2.33;;;;;;;22.52;26.48;101151.91;1731810;83;21009;-58
2023/05/12 09:38:13;;;;;;;3.75;2.30;;;;;;;22.24;26.68;101143.98;1731657;83;21029;-60
2023/05/12 09:40:42;;;;;;;10.72;3.83;;;;;;;22.11;26.65;101135.41;1731710;83;21032;-60
2023/05/12 09:43:12;;;;;;;8.23;3.15;;;;;;;22.00;26.85;101139.64;1731540;83;21484;-59
2023/05/12 09:45:45;;;;;;;4.30;2.87;;;;;;;21.98;27.20;101136.26;1731857;83;21094;-59
2023/05/12 09:48:14;;;;;;;3.15;2.00;;;;;;;21.99;26.85;101151.35;1731963;83;21034;-62
2023/05/12 09:50:51;;;;;;;4.15;2.08;;;;;;;21.90;26.10;101141.72;1731598;83;21087;-59
2023/05/12 09:53:21;;;;;;;7.15;2.58;;;;;;;21.83;26.02;101141.89;1728926;83;21064;-62
2023/05/12 09:55:50;;;;;;;6.10;2.40;;;;;;;21.75;25.83;101138.13;1731745;83;21079;-60
2023/05/12 09:58:19;;;;;;;4.72;2.30;;;;;;;21.67;25.63;101134.38;1731526;83;21463;-59
2023/05/12 10:00:49;;;;;;;5.15;2.33;;;;;;;21.53;25.97;101134.41;1731646;83;21067;-60
2023/05/12 10:03:22;;;;;;;6.33;2.35;;;;;;;21.40;26.13;101131.37;1727083;83;21060;-58
2023/05/12 10:05:53;;;;;;;9.13;3.37;;;;;;;21.34;26.16;101127.34;1638970;87;21181;-59
2023/05/12 10:08:39;;;;;;;6.15;2.42;;;;;;;21.28;26.53;101130.59;1634573;88;21107;-59
2023/05/12 10:11:09;;;;;;;8.95;2.50;;;;;;;21.26;26.69;101128.59;1636725;88;21060;-59
2023/05/12 10:13:38;;;;;;;5.65;2.25;;;;;;;21.21;26.46;101130.72;1612082;88;21112;-61
2023/05/12 10:16:07;;;;;;;4.12;2.02;;;;;;;21.23;26.55;101129.65;1636977;88;21222;-59
2023/05/12 10:18:37;;;;;;;3.08;2.08;;;;;;;21.19;26.74;101125.94;1611417;88;21116;-59
2023/05/12 10:21:07;;;;;;;5.78;2.92;;;;;;;21.09;26.17;101119.33;1604353;89;21125;-59
2023/05/12 10:23:35;;;;;;;4.40;2.10;;;;;;;21.03;26.28;101118.39;1656176;83;21042;-59
2023/05/12 10:26:06;;;;;;;2.70;1.90;;;;;;;21.05;26.25;101112.56;1708256;84;21093;-58
2023/05/12 10:28:36;;;;;;;4.42;2.50;;;;;;;20.98;26.05;101104.36;1708338;84;21109;-60
2023/05/12 10:31:06;;;;;;;3.00;2.00;;;;;;;20.89;26.39;101105.84;1708371;84;21026;-59
2023/05/12 10:33:35;;;;;;;7.10;2.60;;;;;;;20.98;26.05;101103.51;1688929;84;21057;-60
2023/05/12 10:36:05;;;;;;;5.30;1.80;;;;;;;21.05;26.07;101102.81;1708177;84;21467;-59
2023/05/12 10:38:37;;;;;;;4.87;2.37;;;;;;;21.13;26.14;101103.80;1711963;83;21061;-57
2023/05/12 10:41:06;;;;;;;11.53;3.55;;;;;;;21.10;26.36;101105.14;1708380;84;21085;-59
2023/05/12 10:43:44;;;;;;;4.90;2.70;;;;;;;21.09;26.70;101104.84;1708288;84;21076;-59
2023/05/12 10:46:17;;;;;;;4.75;2.25;;;;;;;21.11;26.34;101097.08;1708139;84;21053;-58
2023/05/12 10:49:09;;;;;;;2.90;2.10;;;;;;;21.17;26.22;101089.11;1708076;84;21064;-59
2023/05/12 10:51:50;;;;;;;3.37;1.90;;;;;;;21.15;26.38;101091.30;1708266;84;21006;-59
2023/05/12 10:54:23;;;;;;;4.60;2.50;;;;;;;21.01;26.54;101096.05;1708235;84;21029;-58
2023/05/12 10:56:56;;;;;;;3.33;2.33;;;;;;;20.94;26.95;101100.38;1708315;84;21035;-59
2023/05/12 10:59:26;;;;;;;5.33;2.37;;;;;;;20.93;27.18;101095.05;1711764;84;21014;-59
2023/05/12 11:02:02;;;;;;;4.22;2.42;;;;;;;20.95;27.22;101094.26;1708317;84;21165;-60
2023/05/12 11:04:49;;;;;;;;;;;;;;;20.95;27.77;101091.47;1711017;84;21046;-58
2023/05/12 11:07:32;;;;;;;6.17;2.33;;;;;;;20.96;27.82;101090.38;1708529;84;20478;-59
2023/05/12 11:10:04;;;;;;;8.10;2.55;;;;;;;20.92;27.46;101093.36;1708284;84;21025;-59
2023/05/12 11:12:36;;;;;;;5.05;2.60;;;;;;;20.94;27.53;101092.02;1708210;84;21116;-58
2023/05/12 11:15:06;;;;;;;5.47;2.20;;;;;;;20.92;27.36;101092.81;1708148;84;21052;-59
2023/05/12 11:17:39;;;;;;;5.25;2.75;;;;;;;20.84;27.95;101096.00;1708285;83;21539;-59
2023/05/12 11:20:09;;;;;;;6.50;2.75;;;;;;;20.77;27.84;101087.76;1686647;84;21677;-58
2023/05/12 11:22:40;;;;;;;9.15;3.00;;;;;;;20.75;27.86;101098.84;1690879;85;21045;-59
2023/05/12 11:25:11;;;;;;;5.83;2.40;;;;;;;20.71;27.79;101085.97;1691156;85;21068;-59
2023/05/12 11:27:48;;;;;;;5.25;2.22;;;;;;;20.68;27.66;101085.62;1691071;85;21104;-59
2023/05/12 11:30:18;;;;;;;3.55;2.30;;;;;;;20.70;27.55;101085.67;1691104;85;21088;-59
2023/05/12 11:32:48;;;;;;;4.70;2.15;;;;;;;20.73;27.05;101085.17;1691189;85;22060;-60
2023/05/12 11:35:18;;;;;;;3.58;2.12;;;;;;;20.72;26.95;101081.24;1691051;85;21064;-58
2023/05/12 11:37:48;;;;;;;5.78;2.22;;;;;;;20.74;27.29;101079.91;1691144;85;21045;-59
2023/05/12 11:40:19;;;;;;;3.47;2.27;;;;;;;20.78;26.97;101072.73;1691491;85;21052;-60